Elkhorn City, Kentucky
Current Conditions -  °F | °C
As of 5:35 PM on Saturday 25 Oct 2014 (Local Time) from KPBX Reporting Station
Overcast Overcast  
Wind Chill: 65°   Ceiling: 2900
Heat Index: 65°   Visibility: 10mi
Dew Point: 49°   Wind: 6mph
Humidity: 58%   Direction: 200°SSW
Pressure: 29.97"   Gusts: NA
Location:  37.3°N, 82.35°W
Report Text: KPBX 252135Z AUTO 20005KT 10SM OVC029 18/10 A2997 RMK AO2 T01810096
Loading
Personal Weather Stations






























Interactive Weather Map
Tropical Storm Tracking
New forecast layout! Learn more

10-Day Weather Forecast

Advertisements
Track Severe Weather on mobile